Time;durP1;ratioP1;P1;durP2;ratioP2;P2;SDS_P1;SDS_P2;PMS_P1;PMS_P2;Temp;Humidity;BMP_temperature;BMP_pressure;BME280_temperature;BME280_humidity;BME280_pressure;Samples;Min_cycle;Max_cycle;Signal;HPM_P1;HPM_P2
2023/06/28 00:00:53;;;;;;;1.20;0.90;;;;;;;16.05;99.85;101485.47;6251508;28;20060;-73
2023/06/28 00:03:54;;;;;;;6.13;1.15;;;;;;;16.08;100.00;101484.41;6251023;28;20057;-73
2023/06/28 00:06:55;;;;;;;4.80;1.10;;;;;;;16.14;100.00;101495.50;6251974;28;20435;-72
2023/06/28 00:09:56;;;;;;;1.33;0.95;;;;;;;16.07;100.00;101486.22;6268313;28;20055;-72
2023/06/28 00:12:59;;;;;;;1.50;1.08;;;;;;;16.00;100.00;101489.38;6250885;28;20351;-72
2023/06/28 00:16:01;;;;;;;5.57;1.02;;;;;;;15.92;100.00;101493.38;6269664;28;20048;-73
2023/06/28 00:19:02;;;;;;;4.32;1.95;;;;;;;15.84;100.00;101493.00;6276147;28;20048;-72
2023/06/28 00:22:04;;;;;;;2.25;0.95;;;;;;;15.85;100.00;101491.19;6275567;28;20174;-73
2023/06/28 00:25:06;;;;;;;2.83;1.02;;;;;;;15.77;100.00;101499.66;6276089;28;20045;-72
2023/06/28 00:28:09;;;;;;;5.13;1.33;;;;;;;15.73;100.00;101495.50;6276277;28;20045;-73
2023/06/28 00:31:10;;;;;;;3.97;1.20;;;;;;;15.63;100.00;101503.13;6275387;28;20049;-73
2023/06/28 00:34:11;;;;;;;2.13;1.15;;;;;;;15.58;100.00;101502.56;6275724;28;20045;-72
2023/06/28 00:37:13;;;;;;;4.40;1.30;;;;;;;15.57;100.00;101503.50;6275599;28;20349;-73
2023/06/28 00:40:14;;;;;;;6.03;1.40;;;;;;;15.53;100.00;101503.78;6275907;28;20041;-72
2023/06/28 00:43:17;;;;;;;5.57;1.17;;;;;;;15.52;100.00;101505.59;6262967;28;20056;-74
2023/06/28 00:46:18;;;;;;;4.03;0.98;;;;;;;15.55;100.00;101499.25;6250888;28;20362;-72
2023/06/28 00:49:20;;;;;;;2.35;1.25;;;;;;;15.58;100.00;101497.28;6250882;28;20048;-73
2023/06/28 00:52:22;;;;;;;5.05;1.20;;;;;;;15.59;100.00;101498.13;6249992;28;20057;-73
2023/06/28 00:55:23;;;;;;;4.10;1.13;;;;;;;15.52;100.00;101510.03;6263584;28;20041;-72
2023/06/28 00:58:26;;;;;;;1.70;1.40;;;;;;;15.45;100.00;101509.56;6275281;28;20052;-73
2023/06/28 01:01:28;;;;;;;2.78;1.17;;;;;;;15.48;100.00;101506.72;6274745;28;20052;-72
2023/06/28 01:04:30;;;;;;;3.30;1.27;;;;;;;15.49;100.00;101516.38;6275107;28;20041;-72
2023/06/28 01:07:35;;;;;;;3.67;1.38;;;;;;;15.48;100.00;101519.97;6275409;28;20056;-72
2023/06/28 01:10:37;;;;;;;1.17;1.08;;;;;;;15.53;100.00;101517.88;6274450;28;20055;-72
2023/06/28 01:13:41;;;;;;;2.92;1.88;;;;;;;15.53;100.00;101515.22;6274910;28;20461;-72
2023/06/28 01:16:42;;;;;;;3.08;2.03;;;;;;;15.49;100.00;101516.38;6275134;28;20045;-73
2023/06/28 01:19:44;;;;;;;2.80;1.15;;;;;;;15.36;100.00;101518.94;6275497;28;20045;-72
2023/06/28 01:22:54;;;;;;;5.93;1.17;;;;;;;15.16;100.00;101525.41;6258558;28;20053;-72
2023/06/28 01:25:56;;;;;;;6.38;1.38;;;;;;;15.21;100.00;101526.03;6243158;28;20439;-72
2023/06/28 01:28:58;;;;;;;3.80;1.10;;;;;;;15.15;100.00;101534.31;6250258;28;20045;-72
2023/06/28 01:31:59;;;;;;;2.25;1.17;;;;;;;15.15;100.00;101531.66;6249513;28;20339;-72
2023/06/28 01:35:01;;;;;;;4.78;1.50;;;;;;;15.01;100.00;101536.09;6250129;28;20053;-72
2023/06/28 01:38:04;;;;;;;5.05;1.80;;;;;;;15.04;100.00;101531.47;6250165;28;20050;-72
2023/06/28 01:41:07;;;;;;;3.30;1.10;;;;;;;15.02;100.00;101530.69;6249733;28;20045;-72
2023/06/28 01:44:08;;;;;;;7.15;1.42;;;;;;;15.11;100.00;101531.94;6249826;28;20430;-72
2023/06/28 01:47:11;;;;;;;3.90;1.60;;;;;;;15.09;100.00;101525.91;6250085;28;20049;-72
2023/06/28 01:50:12;;;;;;;3.40;1.77;;;;;;;15.12;100.00;101531.84;6250004;28;20056;-73
2023/06/28 01:53:15;;;;;;;2.33;1.42;;;;;;;15.09;100.00;101526.75;6252917;28;20048;-73
2023/06/28 01:56:16;;;;;;;5.80;1.88;;;;;;;15.12;100.00;101523.91;6274485;28;20041;-73
2023/06/28 01:59:17;;;;;;;5.32;1.77;;;;;;;15.04;100.00;101527.97;6274831;28;20049;-73
2023/06/28 02:02:19;;;;;;;1.55;1.08;;;;;;;15.03;100.00;101526.25;6273941;28;20345;-73
2023/06/28 02:05:21;;;;;;;3.72;1.30;;;;;;;15.00;100.00;101527.28;6274362;28;20037;-73
2023/06/28 02:08:23;;;;;;;2.35;1.50;;;;;;;14.99;100.00;101528.25;6274297;28;20080;-72
2023/06/28 02:11:25;;;;;;;3.90;1.70;;;;;;;14.92;100.00;101530.38;6273694;28;20044;-72
2023/06/28 02:14:26;;;;;;;5.25;1.95;;;;;;;14.91;100.00;101522.53;6274269;28;20404;-72
2023/06/28 02:17:27;;;;;;;4.80;1.65;;;;;;;14.90;100.00;101528.78;6252432;28;20048;-73
2023/06/28 02:20:29;;;;;;;2.58;1.20;;;;;;;14.93;100.00;101525.94;6249594;28;20357;-72
2023/06/28 02:23:31;;;;;;;4.15;1.60;;;;;;;14.90;100.00;101520.84;6247897;28;20052;-73
2023/06/28 02:26:34;;;;;;;2.92;1.67;;;;;;;14.91;100.00;101517.25;6251111;28;20041;-73
2023/06/28 02:29:36;;;;;;;3.40;1.70;;;;;;;14.85;100.00;101518.47;6253915;28;20045;-72
2023/06/28 02:32:37;;;;;;;4.68;1.75;;;;;;;14.71;100.00;101515.75;6253105;28;20038;-73
2023/06/28 02:35:38;;;;;;;3.35;1.60;;;;;;;14.62;100.00;101527.72;6260534;28;20430;-72
2023/06/28 02:38:41;;;;;;;7.22;2.20;;;;;;;14.54;100.00;101524.69;6278775;28;20052;-72
2023/06/28 02:41:42;;;;;;;5.15;1.73;;;;;;;14.48;100.00;101527.66;6257631;28;20045;-72
2023/06/28 02:44:44;;;;;;;3.75;2.70;;;;;;;14.33;100.00;101517.94;6252778;28;20045;-72
2023/06/28 02:47:45;;;;;;;8.23;1.75;;;;;;;14.50;100.00;101524.94;6253424;28;20045;-73
2023/06/28 02:50:46;;;;;;;6.47;2.22;;;;;;;14.58;100.00;101526.22;6247650;28;20046;-72
2023/06/28 02:53:49;;;;;;;6.97;1.75;;;;;;;14.60;100.00;101528.75;6253021;28;20049;-73
2023/06/28 02:56:50;;;;;;;4.18;2.13;;;;;;;14.63;100.00;101532.09;6245603;28;20049;-73
2023/06/28 02:59:51;;;;;;;4.22;2.10;;;;;;;14.61;100.00;101533.13;6253370;28;20049;-73
2023/06/28 03:02:53;;;;;;;3.88;2.33;;;;;;;14.61;100.00;101533.13;6252665;28;20046;-72
2023/06/28 03:05:54;;;;;;;4.70;1.80;;;;;;;14.58;100.00;101534.16;6252991;28;20393;-72
2023/06/28 03:08:57;;;;;;;3.20;1.95;;;;;;;14.52;100.00;101531.84;6253278;28;20041;-72
2023/06/28 03:11:58;;;;;;;6.70;2.08;;;;;;;14.56;100.00;101527.22;6270209;28;20049;-72
2023/06/28 03:14:59;;;;;;;4.32;1.85;;;;;;;14.60;100.00;101534.91;6277715;28;20045;-72
2023/06/28 03:18:01;;;;;;;5.15;2.55;;;;;;;14.48;100.00;101527.66;6277469;28;20327;-73
2023/06/28 03:21:02;;;;;;;5.15;1.83;;;;;;;14.44;100.00;101518.16;6276848;28;20057;-72
2023/06/28 03:24:06;;;;;;;5.22;2.40;;;;;;;14.48;100.00;101519.72;6277545;28;20176;-72
2023/06/28 03:27:08;;;;;;;3.55;2.10;;;;;;;14.41;100.00;101527.16;6277297;28;20056;-72
2023/06/28 03:30:10;;;;;;;8.13;2.33;;;;;;;14.35;100.00;101524.84;6277450;28;20118;-72
2023/06/28 03:33:11;;;;;;;4.03;2.10;;;;;;;14.34;100.00;101519.63;6276560;28;20052;-73
2023/06/28 03:36:12;;;;;;;5.45;2.08;;;;;;;14.23;100.00;101520.25;6277157;28;20045;-73
2023/06/28 03:39:15;;;;;;;2.88;1.73;;;;;;;14.31;100.00;101522.47;6277071;28;20342;-73
2023/06/28 03:42:16;;;;;;;5.55;2.22;;;;;;;14.35;100.00;101523.97;6262128;28;20361;-73
2023/06/28 03:45:18;;;;;;;3.33;1.65;;;;;;;14.31;100.00;101520.69;6247354;28;20048;-73
2023/06/28 03:48:20;;;;;;;6.13;1.92;;;;;;;14.32;100.00;101525.03;6248151;28;20048;-72
2023/06/28 03:51:21;;;;;;;7.60;2.53;;;;;;;14.28;100.00;101523.50;6247549;28;20052;-72
2023/06/28 03:54:23;;;;;;;5.35;2.40;;;;;;;14.30;100.00;101518.94;6248369;28;20049;-72
2023/06/28 03:57:25;;;;;;;3.35;2.47;;;;;;;14.34;100.00;101517.00;6248673;28;20430;-73
2023/06/28 04:00:26;;;;;;;3.63;2.10;;;;;;;14.33;100.00;101523.22;6247580;28;20054;-73
2023/06/28 04:03:27;;;;;;;9.88;1.95;;;;;;;14.34;100.00;101527.56;6247475;28;20045;-72
2023/06/28 04:06:29;;;;;;;5.32;2.13;;;;;;;14.33;100.00;101523.22;6249067;28;20350;-73
2023/06/28 04:09:32;;;;;;;3.72;2.13;;;;;;;14.30;100.00;101526.03;6251943;28;20052;-73
2023/06/28 04:12:33;;;;;;;5.50;2.15;;;;;;;14.31;100.00;101522.47;6248049;28;20508;-72
2023/06/28 04:15:34;;;;;;;6.68;2.38;;;;;;;14.32;100.00;101519.75;6247271;28;20041;-72
2023/06/28 04:18:36;;;;;;;5.07;2.05;;;;;;;14.40;100.00;101525.44;6247206;28;20349;-72
2023/06/28 04:21:37;;;;;;;4.28;2.40;;;;;;;14.38;100.00;101524.66;6246933;28;20061;-72
2023/06/28 04:24:40;;;;;;;4.35;2.30;;;;;;;14.40;100.00;101527.25;6247267;28;20045;-73
2023/06/28 04:27:41;;;;;;;6.20;2.67;;;;;;;14.39;100.00;101531.66;6247320;28;20049;-73
2023/06/28 04:30:42;;;;;;;4.85;2.15;;;;;;;14.41;100.00;101532.44;6246265;28;20053;-73
2023/06/28 04:33:45;;;;;;;9.75;2.72;;;;;;;14.43;100.00;101535.84;6246969;28;20052;-72
2023/06/28 04:36:49;;;;;;;5.13;2.60;;;;;;;14.33;100.00;101536.44;6246845;28;20046;-72
2023/06/28 04:39:52;;;;;;;6.65;2.60;;;;;;;14.10;100.00;101537.75;6246648;28;20045;-72
2023/06/28 04:42:53;;;;;;;9.02;3.00;;;;;;;14.19;100.00;101537.22;6249547;28;20453;-73
2023/06/28 04:45:55;;;;;;;7.97;2.88;;;;;;;14.04;100.00;101538.94;6251622;28;20037;-73
2023/06/28 04:48:57;;;;;;;6.13;2.97;;;;;;;14.21;100.00;101530.91;6275495;28;20135;-72
2023/06/28 04:51:58;;;;;;;5.60;2.70;;;;;;;14.16;100.00;101532.09;6274751;28;20124;-72
2023/06/28 04:55:01;;;;;;;8.30;3.45;;;;;;;14.09;100.00;101536.88;6275434;28;20433;-72
2023/06/28 04:58:04;;;;;;;6.13;2.45;;;;;;;14.25;100.00;101533.38;6275371;28;20059;-73
2023/06/28 05:01:07;;;;;;;6.55;2.65;;;;;;;14.24;100.00;101534.31;6274622;28;20052;-73
2023/06/28 05:04:08;;;;;;;8.63;2.72;;;;;;;14.22;100.00;101523.84;6275449;28;20132;-73
2023/06/28 05:07:10;;;;;;;4.97;2.47;;;;;;;14.34;100.00;101525.78;6272508;28;20060;-73
2023/06/28 05:10:13;;;;;;;3.88;2.40;;;;;;;14.33;100.00;101521.44;6250619;28;20331;-73
2023/06/28 05:13:14;;;;;;;4.78;2.42;;;;;;;14.35;100.00;101524.84;6253150;28;20131;-73
2023/06/28 05:16:16;;;;;;;7.53;2.63;;;;;;;14.45;100.00;101515.47;6271442;28;20426;-73
2023/06/28 05:19:17;;;;;;;5.03;2.30;;;;;;;14.48;100.00;101517.09;6250284;28;20049;-73
2023/06/28 05:22:21;;;;;;;8.43;2.67;;;;;;;14.42;100.00;101509.47;6249805;28;20073;-73
2023/06/28 05:25:24;;;;;;;2.65;2.13;;;;;;;14.56;100.00;101521.94;6250079;28;20072;-72
2023/06/28 05:28:26;;;;;;;4.80;2.05;;;;;;;14.68;100.00;101523.91;6250364;28;20045;-73
2023/06/28 05:31:27;;;;;;;5.53;1.90;;;;;;;14.77;100.00;101527.81;6249583;28;20045;-73
2023/06/28 05:34:28;;;;;;;5.72;2.50;;;;;;;14.84;100.00;101532.63;6250274;28;20050;-72
2023/06/28 05:37:29;;;;;;;10.77;3.00;;;;;;;14.83;100.00;101528.28;6250185;28;20041;-74
2023/06/28 05:40:33;;;;;;;7.55;2.80;;;;;;;14.71;100.00;101527.19;6250026;28;20048;-73
2023/06/28 05:43:34;;;;;;;7.13;3.00;;;;;;;14.82;100.00;101526.59;6249988;28;20179;-73
2023/06/28 05:46:37;;;;;;;7.25;3.17;;;;;;;14.86;100.00;101525.47;6249937;28;20037;-75
2023/06/28 05:49:39;;;;;;;7.82;3.13;;;;;;;14.92;100.00;101518.94;6249958;28;20052;-73
2023/06/28 05:52:40;;;;;;;8.90;3.25;;;;;;;15.05;100.00;101527.03;6249210;28;20191;-73
2023/06/28 05:55:43;;;;;;;6.07;2.85;;;;;;;15.11;100.00;101514.25;6249961;28;20041;-73
2023/06/28 05:58:44;;;;;;;7.28;2.30;;;;;;;15.20;100.00;101521.66;6249841;28;20057;-73
2023/06/28 06:01:45;;;;;;;8.35;2.83;;;;;;;15.16;100.00;101519.28;6251218;28;20446;-73
2023/06/28 06:04:47;;;;;;;5.15;2.30;;;;;;;15.27;100.00;101524.78;6278826;28;20052;-73
2023/06/28 06:07:48;;;;;;;10.10;3.35;;;;;;;15.34;100.00;101525.25;6279424;28;20052;-74
2023/06/28 06:10:51;;;;;;;5.95;2.47;;;;;;;15.43;100.00;101517.59;6261977;28;20354;-72
2023/06/28 06:13:52;;;;;;;11.77;2.63;;;;;;;15.57;100.00;101522.03;6246444;28;20049;-72
2023/06/28 06:16:54;;;;;;;6.18;2.47;;;;;;;15.62;100.00;101512.00;6254351;28;20049;-73
2023/06/28 06:19:55;;;;;;;7.97;3.45;;;;;;;15.58;100.00;101515.81;6254233;28;20041;-73
2023/06/28 06:22:56;;;;;;;4.15;2.88;;;;;;;15.68;100.00;101509.03;6253647;28;20060;-72
2023/06/28 06:25:59;;;;;;;5.25;2.47;;;;;;;15.66;100.00;101513.56;6253923;28;20056;-75
2023/06/28 06:29:00;;;;;;;6.68;3.50;;;;;;;15.65;100.00;101521.59;6254024;28;20491;-72
2023/06/28 06:32:02;;;;;;;6.32;2.30;;;;;;;15.66;100.00;101520.66;6253296;28;20061;-72
2023/06/28 06:35:04;;;;;;;5.28;2.42;;;;;;;15.69;100.00;101521.31;6253930;28;20057;-73
2023/06/28 06:38:05;;;;;;;6.53;2.30;;;;;;;15.79;100.00;101526.91;6255993;28;20454;-73
2023/06/28 06:41:08;;;;;;;5.38;2.40;;;;;;;15.78;100.00;101530.50;6277766;28;20045;-72
2023/06/28 06:44:09;;;;;;;6.80;2.30;;;;;;;15.88;100.00;101525.47;6278401;28;20053;-72
2023/06/28 06:47:10;;;;;;;3.67;2.10;;;;;;;15.89;100.00;101522.72;6278282;28;20068;-77
2023/06/28 06:50:13;;;;;;;4.60;1.77;;;;;;;16.05;100.00;101529.72;6258974;28;20045;-74
2023/06/28 06:53:15;;;;;;;7.38;2.55;;;;;;;16.06;100.00;101524.28;6252791;28;20424;-73
2023/06/28 06:56:22;;;;;;;6.35;1.38;;;;;;;16.16;100.00;101522.75;6253325;28;20050;-73
2023/06/28 06:59:24;;;;;;;1.48;1.20;;;;;;;16.30;100.00;101518.34;6253480;28;20053;-72
2023/06/28 07:02:25;;;;;;;2.17;1.20;;;;;;;16.37;100.00;101532.94;6252566;28;20346;-72
2023/06/28 07:05:27;;;;;;;1.65;1.25;;;;;;;16.41;100.00;101531.78;6253106;28;20041;-72
2023/06/28 07:08:28;;;;;;;4.10;1.00;;;;;;;16.47;99.92;101529.56;6252985;28;20052;-72
2023/06/28 07:11:31;;;;;;;1.90;1.23;;;;;;;16.53;98.65;101528.31;6252361;28;20048;-73
2023/06/28 07:14:32;;;;;;;3.08;0.70;;;;;;;16.60;96.49;101526.13;6253169;28;20057;-73
2023/06/28 07:17:33;;;;;;;3.67;2.03;;;;;;;16.63;95.67;101531.22;6252915;28;20060;-73
2023/06/28 07:20:35;;;;;;;1.73;1.00;;;;;;;16.76;93.36;101534.81;6252146;28;20049;-73
2023/06/28 07:23:36;;;;;;;8.23;1.38;;;;;;;16.82;92.82;101539.69;6251944;28;20052;-72
2023/06/28 07:26:39;;;;;;;6.97;1.00;;;;;;;16.93;90.25;101541.63;6252783;28;20057;-72
2023/06/28 07:29:40;;;;;;;1.75;0.82;;;;;;;17.01;89.82;101541.13;6252684;28;20053;-72
2023/06/28 07:32:41;;;;;;;3.60;1.08;;;;;;;17.04;91.49;101541.75;6252319;28;20046;-72
2023/06/28 07:35:43;;;;;;;3.58;0.90;;;;;;;17.07;92.04;101530.91;6252363;28;20052;-72
2023/06/28 07:38:44;;;;;;;3.75;2.33;;;;;;;17.16;91.16;101545.38;6268300;28;20072;-78
2023/06/28 07:41:47;;;;;;;3.35;1.20;;;;;;;17.18;89.57;101541.66;6252386;28;20041;-72
2023/06/28 07:44:48;;;;;;;3.22;0.98;;;;;;;17.26;89.79;101543.81;6252079;28;20042;-72
2023/06/28 07:47:50;;;;;;;0.73;0.60;;;;;;;17.38;88.10;101545.59;6252138;28;20338;-72
2023/06/28 07:50:51;;;;;;;1.10;0.80;;;;;;;17.45;86.77;101540.72;6251436;28;20045;-72
2023/06/28 07:53:52;;;;;;;3.03;1.15;;;;;;;17.49;86.50;101551.03;6251926;28;20362;-72
2023/06/28 07:56:55;;;;;;;3.50;0.73;;;;;;;17.52;86.65;101541.97;6251775;28;20049;-72
2023/06/28 07:59:56;;;;;;;1.63;1.15;;;;;;;17.52;85.75;101552.63;6251921;28;20347;-72
2023/06/28 08:02:58;;;;;;;3.70;1.02;;;;;;;17.64;86.45;101540.28;6251184;28;20058;-72
2023/06/28 08:06:00;;;;;;;3.78;0.90;;;;;;;17.55;82.17;101538.28;6251816;28;20152;-73
2023/06/28 08:09:01;;;;;;;2.38;0.75;;;;;;;17.57;82.09;101534.53;6251648;28;20053;-72
2023/06/28 08:12:05;;;;;;;0.88;0.70;;;;;;;17.62;80.40;101540.41;6261157;28;20045;-73
2023/06/28 08:15:07;;;;;;;2.13;0.95;;;;;;;17.62;81.88;101528.91;6276390;28;20049;-73
2023/06/28 08:18:09;;;;;;;4.72;1.17;;;;;;;17.70;85.58;101532.72;6276192;28;20353;-74
2023/06/28 08:21:11;;;;;;;3.25;1.20;;;;;;;17.73;81.41;101539.63;6275598;28;20056;-73
2023/06/28 08:24:12;;;;;;;2.58;1.10;;;;;;;17.75;82.32;101537.75;6254794;28;20046;-73
2023/06/28 08:27:15;;;;;;;2.72;0.90;;;;;;;17.89;81.92;101528.78;6251424;28;20045;-72
2023/06/28 08:30:17;;;;;;;4.68;1.23;;;;;;;17.88;76.43;101533.25;6251600;28;20056;-72
2023/06/28 08:33:18;;;;;;;2.72;1.10;;;;;;;17.83;78.02;101531.88;6250624;28;20045;-72
2023/06/28 08:36:20;;;;;;;5.30;1.02;;;;;;;17.85;76.16;101535.28;6263169;28;20045;-73
2023/06/28 08:39:21;;;;;;;1.42;0.98;;;;;;;17.90;77.94;101531.34;6255119;28;20132;-75
2023/06/28 08:42:24;;;;;;;4.55;0.90;;;;;;;17.90;79.03;101523.38;6250217;28;20050;-73
2023/06/28 08:45:26;;;;;;;2.08;0.80;;;;;;;17.98;77.77;101525.47;6250686;28;20056;-73
2023/06/28 08:48:28;;;;;;;3.30;0.73;;;;;;;18.17;79.23;101520.53;6250781;28;20041;-75
2023/06/28 08:51:30;;;;;;;2.22;1.02;;;;;;;18.24;76.35;101511.13;6272127;28;20041;-73
2023/06/28 08:54:33;;;;;;;1.40;0.60;;;;;;;18.27;77.15;101517.19;6275289;28;20045;-73
2023/06/28 08:57:37;;;;;;;3.10;1.02;;;;;;;18.31;74.87;101516.84;6275451;28;20052;-73
2023/06/28 09:00:41;;;;;;;2.72;1.10;;;;;;;18.43;74.88;101515.09;6274650;28;20045;-73
2023/06/28 09:03:43;;;;;;;2.53;1.42;;;;;;;18.54;75.53;101514.31;6275467;28;20041;-73
2023/06/28 09:06:45;;;;;;;3.67;1.00;;;;;;;18.60;77.21;101521.81;6275169;28;20049;-73
2023/06/28 09:09:48;;;;;;;4.05;1.17;;;;;;;18.56;78.68;101525.66;6275133;28;20044;-73
2023/06/28 09:12:51;;;;;;;3.65;0.80;;;;;;;18.40;73.03;101521.50;6274519;28;20170;-73
2023/06/28 09:15:54;;;;;;;1.05;0.70;;;;;;;18.29;73.91;101524.09;6274861;28;20174;-73
2023/06/28 09:18:55;;;;;;;4.93;1.13;;;;;;;18.30;71.15;101520.44;6275084;28;20463;-73
2023/06/28 09:22:02;;;;;;;1.58;0.68;;;;;;;18.44;71.70;101517.66;6274283;28;20057;-76
2023/06/28 09:25:04;;;;;;;5.65;0.95;;;;;;;18.45;73.39;101519.34;6266841;28;20064;-73
2023/06/28 09:28:08;;;;;;;4.05;1.10;;;;;;;18.54;76.08;101522.28;6264657;28;20045;-73
2023/06/28 09:31:09;;;;;;;4.15;0.70;;;;;;;18.54;76.06;101523.13;6249697;28;20053;-72
2023/06/28 09:34:11;;;;;;;4.35;1.02;;;;;;;18.66;75.99;101524.00;6269236;28;20072;-72
2023/06/28 09:37:12;;;;;;;2.13;1.02;;;;;;;18.79;78.77;101527.47;6276496;28;20045;-72
2023/06/28 09:40:16;;;;;;;1.23;0.98;;;;;;;18.83;77.07;101522.78;6255153;28;20041;-72
2023/06/28 09:43:19;;;;;;;3.35;1.00;;;;;;;18.91;78.12;101531.06;6254496;28;20053;-72
2023/06/28 09:46:21;;;;;;;3.42;1.15;;;;;;;18.97;77.82;101523.41;6254966;28;20068;-72
2023/06/28 09:49:24;;;;;;;1.83;1.08;;;;;;;18.92;77.10;101522.94;6254905;28;20464;-72
2023/06/28 09:52:27;;;;;;;2.13;0.82;;;;;;;18.85;76.16;101536.81;6254391;28;20060;-73
2023/06/28 09:55:29;;;;;;;2.30;0.60;;;;;;;18.79;73.43;101516.84;6254917;28;20049;-72
2023/06/28 09:58:32;;;;;;;2.30;0.70;;;;;;;18.82;71.63;101524.59;6254857;28;20042;-72
2023/06/28 10:01:38;;;;;;;0.77;0.75;;;;;;;18.84;70.47;101517.31;6254146;28;20052;-72
2023/06/28 10:04:40;;;;;;;2.58;0.90;;;;;;;18.96;70.94;101516.41;6254810;28;20045;-73
2023/06/28 10:07:43;;;;;;;4.15;0.80;;;;;;;19.04;69.73;101526.47;6269780;28;20041;-73
2023/06/28 10:10:47;;;;;;;2.90;0.70;;;;;;;19.06;69.38;101516.53;6278717;28;20045;-72
2023/06/28 10:13:50;;;;;;;1.35;0.73;;;;;;;19.23;70.34;101512.59;6279120;28;20052;-72
2023/06/28 10:16:54;;;;;;;1.27;0.93;;;;;;;19.38;69.50;101522.03;6246336;28;20045;-72
2023/06/28 10:19:56;;;;;;;1.23;1.00;;;;;;;19.53;69.23;101520.00;6254326;28;20049;-74
2023/06/28 10:22:59;;;;;;;4.57;0.90;;;;;;;19.60;69.07;101518.56;6253708;28;20049;-73
2023/06/28 10:26:02;;;;;;;2.90;1.20;;;;;;;19.56;67.90;101518.91;6254135;28;20053;-73
2023/06/28 10:29:05;;;;;;;1.70;0.88;;;;;;;19.67;65.90;101510.97;6254168;28;20045;-72
2023/06/28 10:32:08;;;;;;;2.85;1.00;;;;;;;19.58;64.97;101514.31;6263968;28;20358;-78
2023/06/28 10:35:10;;;;;;;2.15;1.05;;;;;;;19.45;65.73;101517.94;6278778;28;20049;-74
2023/06/28 10:38:12;;;;;;;2.15;0.90;;;;;;;19.45;67.16;101515.28;6278768;28;20464;-76
2023/06/28 10:41:14;;;;;;;1.98;1.10;;;;;;;19.59;68.33;101522.19;6278110;28;20370;-74
2023/06/28 10:44:17;;;;;;;1.67;1.25;;;;;;;19.58;65.41;101517.00;6278461;28;20476;-72
2023/06/28 10:47:18;;;;;;;2.40;1.13;;;;;;;19.55;64.93;101520.72;6277507;28;20045;-72
2023/06/28 10:50:21;;;;;;;1.75;1.05;;;;;;;19.67;64.08;101506.47;6278660;28;20051;-72
2023/06/28 10:53:25;;;;;;;1.45;1.35;;;;;;;19.86;65.41;101515.66;6277660;28;20457;-72
2023/06/28 10:56:36;;;;;;;1.45;1.25;;;;;;;19.87;64.65;101515.53;6277931;28;20045;-73
2023/06/28 10:59:41;;;;;;;2.22;1.40;;;;;;;19.83;65.28;101507.91;6278206;28;20052;-72
2023/06/28 11:02:55;;;;;;;2.05;1.85;;;;;;;19.78;64.30;101508.25;6277908;28;20061;-72
2023/06/28 11:05:57;;;;;;;2.30;1.45;;;;;;;19.72;65.55;101506.94;6277730;28;20059;-73
2023/06/28 11:09:13;;;;;;;2.50;1.70;;;;;;;19.74;66.63;101512.16;6277249;28;20056;-73
2023/06/28 11:12:19;;;;;;;1.75;1.30;;;;;;;19.90;67.16;101499.28;6252912;28;20068;-73
2023/06/28 11:15:29;;;;;;;2.60;1.52;;;;;;;20.25;68.22;101495.53;6253089;28;20045;-73
2023/06/28 11:18:30;;;;;;;4.22;1.58;;;;;;;20.62;63.39;101508.53;6252903;28;20045;-76
2023/06/28 11:21:31;;;;;;;2.70;1.20;;;;;;;20.44;62.22;101506.44;6252199;28;20350;-74
2023/06/28 11:24:43;;;;;;;1.55;1.30;;;;;;;20.37;62.62;101504.38;6252762;28;20061;-73
2023/06/28 11:27:46;;;;;;;2.05;1.02;;;;;;;20.45;66.37;101509.94;6253110;28;20052;-73
2023/06/28 11:30:51;;;;;;;2.85;1.25;;;;;;;20.44;64.50;101498.41;6252112;28;20059;-73
2023/06/28 11:33:54;;;;;;;1.75;1.10;;;;;;;20.28;63.98;101497.97;6252869;28;20046;-73
2023/06/28 11:36:57;;;;;;;3.88;1.13;;;;;;;20.16;64.14;101499.81;6252406;28;20128;-73
2023/06/28 11:39:59;;;;;;;2.13;0.98;;;;;;;20.12;65.99;101517.06;6252548;28;20358;-73
2023/06/28 11:43:00;;;;;;;4.32;0.85;;;;;;;20.04;67.67;101510.66;6251652;28;20059;-73
2023/06/28 11:46:03;;;;;;;1.02;0.90;;;;;;;20.07;71.14;101510.41;6252557;28;20049;-73
2023/06/28 11:49:05;;;;;;;4.65;1.75;;;;;;;20.10;67.32;101504.81;6252455;28;20041;-72
2023/06/28 11:52:07;;;;;;;1.65;0.60;;;;;;;20.13;67.36;101513.44;6251403;28;20060;-73
2023/06/28 11:55:09;;;;;;;2.55;1.10;;;;;;;20.17;68.45;101516.69;6252277;28;20053;-73
2023/06/28 11:58:11;;;;;;;2.78;1.05;;;;;;;20.28;67.44;101508.66;6251501;28;20041;-73
2023/06/28 12:01:22;;;;;;;2.42;0.98;;;;;;;20.45;66.87;101502.78;6262165;28;20048;-73
2023/06/28 12:04:23;;;;;;;2.90;0.98;;;;;;;20.45;65.29;101491.25;6276433;28;20131;-72
2023/06/28 12:07:24;;;;;;;1.83;0.90;;;;;;;20.47;65.79;101495.50;6276198;28;20051;-72
2023/06/28 12:10:33;;;;;;;2.20;1.08;;;;;;;20.53;65.10;101499.50;6276574;28;20041;-72
2023/06/28 12:13:34;;;;;;;7.33;1.23;;;;;;;20.52;67.03;101495.97;6276372;28;20476;-72
2023/06/28 12:16:37;;;;;;;2.90;0.65;;;;;;;20.58;65.95;101499.97;6253631;28;20063;-77
2023/06/28 12:19:41;;;;;;;1.35;0.60;;;;;;;20.64;65.82;101496.78;6251639;28;20373;-73
2023/06/28 12:22:44;;;;;;;1.48;0.73;;;;;;;20.79;64.33;101499.97;6250671;28;20354;-73
2023/06/28 12:25:45;;;;;;;2.05;0.70;;;;;;;20.84;65.38;101497.75;6258720;28;20456;-73
2023/06/28 12:28:49;;;;;;;1.33;0.80;;;;;;;20.71;64.86;101499.75;6276072;28;20052;-73
2023/06/28 12:31:53;;;;;;;5.28;1.10;;;;;;;20.62;65.07;101498.75;6275603;28;20053;-73
2023/06/28 12:34:54;;;;;;;2.53;0.80;;;;;;;20.63;66.69;101499.59;6275842;28;20047;-73
2023/06/28 12:37:56;;;;;;;4.78;0.90;;;;;;;20.94;66.16;101484.47;6275657;28;20124;-73
2023/06/28 12:40:58;;;;;;;3.47;0.77;;;;;;;21.09;63.95;101485.81;6275216;28;20052;-73
2023/06/28 12:43:59;;;;;;;3.35;0.80;;;;;;;21.07;62.93;101490.44;6275355;28;20241;-75
2023/06/28 12:47:02;;;;;;;2.35;0.80;;;;;;;21.01;63.96;101482.97;6275596;28;20323;-73
2023/06/28 12:50:04;;;;;;;1.67;0.73;;;;;;;20.86;62.46;101484.28;6273984;28;20049;-73
2023/06/28 12:53:05;;;;;;;3.05;1.45;;;;;;;20.93;65.93;101483.59;6250241;28;20049;-73
2023/06/28 12:56:07;;;;;;;1.20;0.70;;;;;;;21.01;65.74;101488.31;6250668;28;20050;-72
2023/06/28 12:59:08;;;;;;;2.05;0.90;;;;;;;21.02;62.99;101498.00;6250824;28;20049;-73
2023/06/28 13:02:11;;;;;;;1.02;0.70;;;;;;;20.99;63.26;101488.44;6250027;28;20053;-72
2023/06/28 13:05:12;;;;;;;1.00;0.60;;;;;;;20.92;65.57;101483.75;6250469;28;20060;-72
2023/06/28 13:08:13;;;;;;;2.47;0.70;;;;;;;20.90;63.93;101485.72;6250522;28;20037;-72
2023/06/28 13:11:15;;;;;;;1.27;0.63;;;;;;;21.01;63.77;101486.47;6249414;28;20041;-72
2023/06/28 13:14:16;;;;;;;1.90;0.60;;;;;;;21.22;62.29;101486.47;6250548;28;20056;-72
2023/06/28 13:17:20;;;;;;;1.17;0.70;;;;;;;21.27;60.85;101491.41;6250244;28;20042;-73
2023/06/28 13:20:22;;;;;;;0.90;0.75;;;;;;;21.26;61.92;101487.91;6250339;28;20354;-72
2023/06/28 13:23:23;;;;;;;2.50;0.77;;;;;;;21.31;65.27;101489.31;6249773;28;20049;-72
2023/06/28 13:26:24;;;;;;;2.42;0.70;;;;;;;21.48;62.53;101488.72;6250415;28;20046;-73
2023/06/28 13:29:26;;;;;;;2.78;0.77;;;;;;;21.48;60.46;101478.88;6250460;28;20049;-75
2023/06/28 13:32:29;;;;;;;1.75;0.65;;;;;;;21.46;64.13;101485.34;6249685;28;20438;-73
2023/06/28 13:35:30;;;;;;;1.80;0.70;;;;;;;21.40;63.42;101485.88;6250084;28;20045;-73
2023/06/28 13:38:32;;;;;;;2.25;0.68;;;;;;;21.51;60.59;101485.78;6250005;28;20381;-73
2023/06/28 13:41:33;;;;;;;1.17;1.02;;;;;;;21.51;61.79;101497.31;6255178;28;20052;-72
2023/06/28 13:44:34;;;;;;;0.80;0.60;;;;;;;21.41;62.34;101492.91;6274564;28;20479;-73
2023/06/28 13:47:37;;;;;;;2.78;0.75;;;;;;;21.32;62.68;101491.88;6268842;28;20042;-73
2023/06/28 13:50:38;;;;;;;1.95;1.25;;;;;;;21.24;62.66;101497.00;6249251;28;20468;-72
2023/06/28 13:53:40;;;;;;;2.38;0.88;;;;;;;21.22;62.78;101493.66;6250093;28;20132;-73
2023/06/28 13:56:41;;;;;;;0.60;0.60;;;;;;;21.10;62.79;101492.00;6250010;28;20481;-73
2023/06/28 13:59:43;;;;;;;2.85;1.10;;;;;;;21.01;64.42;101496.31;6250055;28;20050;-72
2023/06/28 14:02:45;;;;;;;1.50;0.50;;;;;;;21.09;63.52;101496.53;6249137;28;20438;-72